createdAt,value
2018-04-27T00:01:04.530Z,3.57
2018-04-27T00:03:32.905Z,3.50
2018-04-27T00:06:00.669Z,3.60
2018-04-27T00:08:28.738Z,3.03
2018-04-27T00:10:56.621Z,3.20
2018-04-27T00:13:25.193Z,3.63
2018-04-27T00:15:53.576Z,3.60
2018-04-27T00:18:21.815Z,3.63
2018-04-27T00:20:49.610Z,3.83
2018-04-27T00:23:17.886Z,3.77
2018-04-27T00:25:46.267Z,3.63
2018-04-27T00:28:14.751Z,3.40
2018-04-27T00:30:43.028Z,4.40
2018-04-27T00:33:11.326Z,3.93
2018-04-27T00:35:39.161Z,4.03
2018-04-27T00:38:06.828Z,3.80
2018-04-27T00:40:35.406Z,4.00
2018-04-27T00:43:03.782Z,4.37
2018-04-27T00:45:31.550Z,4.03
2018-04-27T00:48:00.230Z,3.97
2018-04-27T00:50:27.801Z,3.93
2018-04-27T00:53:08.234Z,3.97
2018-04-27T00:55:35.728Z,3.90
2018-04-27T00:58:03.314Z,3.80
2018-04-27T01:00:30.902Z,4.37
2018-04-27T01:02:58.425Z,3.90
2018-04-27T01:05:27.073Z,4.50
2018-04-27T01:07:55.453Z,4.20
2018-04-27T01:10:23.751Z,4.00
2018-04-27T01:12:51.798Z,4.07
2018-04-27T01:15:20.181Z,4.00
2018-04-27T01:17:48.563Z,4.03
2018-04-27T01:20:17.036Z,4.17
2018-04-27T01:22:45.518Z,4.07
2018-04-27T01:25:13.802Z,4.10
2018-04-27T01:27:42.294Z,4.20
2018-04-27T01:30:09.937Z,4.23
2018-04-27T01:32:38.422Z,4.27
2018-04-27T01:35:06.765Z,4.03
2018-04-27T01:37:34.334Z,3.80
2018-04-27T01:40:02.017Z,3.90
2018-04-27T01:42:30.698Z,3.80
2018-04-27T01:44:59.078Z,4.30
2018-04-27T01:47:27.449Z,4.13
2018-04-27T01:49:55.119Z,4.37
2018-04-27T01:52:23.598Z,4.20
2018-04-27T01:54:52.213Z,3.93
2018-04-27T01:57:19.894Z,3.73
2018-04-27T01:59:47.808Z,4.20
2018-04-27T02:02:16.201Z,4.13
2018-04-27T02:04:44.778Z,4.00
2018-04-27T02:07:13.365Z,3.60
2018-04-27T02:09:41.634Z,4.03
2018-04-27T02:12:10.214Z,4.30
2018-04-27T02:14:38.897Z,4.27
2018-04-27T02:17:07.483Z,3.70
2018-04-27T02:19:35.961Z,3.90
2018-04-27T02:22:04.442Z,3.77
2018-04-27T02:24:32.682Z,3.70
2018-04-27T02:27:00.281Z,4.63
2018-04-27T02:29:28.786Z,3.50
2018-04-27T02:31:56.358Z,3.73
2018-04-27T02:34:24.197Z,3.60
2018-04-27T02:36:52.869Z,4.13
2018-04-27T02:39:21.254Z,4.50
2018-04-27T02:41:49.522Z,3.87
2018-04-27T02:44:18.102Z,4.20
2018-04-27T02:46:46.489Z,3.90
2018-04-27T02:49:15.269Z,4.37
2018-04-27T02:51:43.669Z,4.53
2018-04-27T02:54:11.254Z,4.60
2018-04-27T02:56:38.919Z,4.90
2018-04-27T02:59:06.480Z,4.20
2018-04-27T03:01:34.301Z,3.97
2018-04-27T03:04:02.626Z,4.73
2018-04-27T03:06:30.266Z,4.10
2018-04-27T03:08:58.094Z,4.20
2018-04-27T03:11:25.757Z,4.87
2018-04-27T03:13:53.334Z,4.30
2018-04-27T03:16:21.390Z,4.23
2018-04-27T03:18:49.765Z,4.00
2018-04-27T03:21:17.434Z,4.80
2018-04-27T03:23:45.977Z,4.77
2018-04-27T03:26:14.385Z,4.50
2018-04-27T03:28:42.255Z,4.90
2018-04-27T03:31:10.678Z,4.20
2018-04-27T03:33:38.349Z,3.97
2018-04-27T03:36:05.865Z,4.07
2018-04-27T03:38:34.433Z,4.73
2018-04-27T03:41:02.402Z,4.10
2018-04-27T03:43:30.170Z,5.13
2018-04-27T03:45:58.560Z,4.03
2018-04-27T03:48:27.030Z,5.47
2018-04-27T03:50:55.614Z,5.30
2018-04-27T03:53:24.093Z,6.17
2018-04-27T03:55:52.778Z,5.47
2018-04-27T03:58:21.255Z,3.67
2018-04-27T04:01:01.107Z,3.77
2018-04-27T04:03:42.073Z,3.83
2018-04-27T04:06:09.946Z,3.60
2018-04-27T04:08:38.422Z,4.13
2018-04-27T04:11:06.190Z,3.93
2018-04-27T04:13:34.665Z,3.97
2018-04-27T04:16:02.331Z,4.07
2018-04-27T04:18:30.565Z,3.87
2018-04-27T04:20:58.157Z,3.80
2018-04-27T04:23:25.709Z,3.67
2018-04-27T04:25:53.293Z,3.33
2018-04-27T04:28:21.657Z,3.87
2018-04-27T04:30:49.466Z,4.57
2018-04-27T04:33:17.186Z,4.03
2018-04-27T04:35:44.961Z,4.10
2018-04-27T04:38:13.299Z,4.97
2018-04-27T04:40:40.986Z,5.43
2018-04-27T04:43:08.459Z,4.33
2018-04-27T04:45:37.021Z,4.60
2018-04-27T04:48:04.793Z,4.43
2018-04-27T04:50:32.562Z,4.10
2018-04-27T04:53:01.150Z,4.03
2018-04-27T04:55:29.481Z,4.50
2018-04-27T04:57:56.989Z,4.57
2018-04-27T05:00:25.222Z,4.10
2018-04-27T05:02:52.747Z,3.77
2018-04-27T05:05:20.539Z,3.90
2018-04-27T05:07:48.181Z,4.17
2018-04-27T05:10:15.645Z,3.80
2018-04-27T05:12:43.146Z,4.23
2018-04-27T05:15:10.705Z,3.90
2018-04-27T05:17:38.365Z,4.30
2018-04-27T05:20:05.415Z,3.83
2018-04-27T05:22:34.711Z,3.43
2018-04-27T05:25:02.486Z,3.50
2018-04-27T05:27:30.729Z,3.40
2018-04-27T05:29:58.414Z,3.17
2018-04-27T05:32:26.073Z,3.47
2018-04-27T05:34:53.841Z,4.60
2018-04-27T05:37:21.506Z,3.57
2018-04-27T05:39:49.774Z,3.50
2018-04-27T05:42:17.339Z,4.20
2018-04-27T05:44:45.966Z,3.83
2018-04-27T05:47:13.853Z,3.83
2018-04-27T05:49:41.345Z,4.30
2018-04-27T05:52:09.835Z,3.43
2018-04-27T05:54:38.310Z,3.70
2018-04-27T05:57:06.694Z,4.43
2018-04-27T05:59:35.370Z,4.80
2018-04-27T06:02:03.857Z,4.43
2018-04-27T06:04:32.362Z,4.40
2018-04-27T06:07:00.094Z,3.60
2018-04-27T06:09:28.334Z,3.90
2018-04-27T06:11:55.798Z,4.17
2018-04-27T06:14:25.378Z,5.07
2018-04-27T06:16:52.942Z,4.93
2018-04-27T06:19:20.495Z,5.37
2018-04-27T06:21:48.226Z,5.87
2018-04-27T06:24:15.874Z,4.93
2018-04-27T06:26:44.137Z,5.47
2018-04-27T06:29:11.911Z,4.10
2018-04-27T06:31:40.195Z,4.60
2018-04-27T06:34:08.470Z,3.90
2018-04-27T06:36:36.878Z,4.10
2018-04-27T06:39:04.350Z,3.37
2018-04-27T06:41:31.873Z,3.93
2018-04-27T06:44:00.658Z,4.00
2018-04-27T06:46:29.538Z,4.10
2018-04-27T06:48:57.814Z,4.27
2018-04-27T06:51:26.297Z,3.73
2018-04-27T06:53:53.702Z,2.47
2018-04-27T06:56:21.216Z,2.63
2018-04-27T06:58:49.519Z,2.80
2018-04-27T07:01:17.157Z,2.80
2018-04-27T07:03:45.473Z,2.33
2018-04-27T07:06:12.946Z,2.00
2018-04-27T07:08:40.641Z,1.80
2018-04-27T07:11:08.888Z,2.00
2018-04-27T07:13:37.186Z,1.70
2018-04-27T07:16:04.654Z,1.97
2018-04-27T07:18:32.935Z,1.87
2018-04-27T07:21:00.900Z,2.30
2018-04-27T07:23:29.165Z,2.00
2018-04-27T07:25:57.594Z,2.27
2018-04-27T07:28:25.834Z,1.90
2018-04-27T07:30:53.393Z,2.10
2018-04-27T07:33:21.671Z,1.80
2018-04-27T07:35:49.918Z,1.93
2018-04-27T07:38:17.396Z,2.00
2018-04-27T07:40:45.878Z,2.20
2018-04-27T07:43:14.134Z,1.97
2018-04-27T07:45:41.713Z,2.37
2018-04-27T07:48:10.190Z,2.20
2018-04-27T07:50:38.461Z,2.20
2018-04-27T07:53:07.046Z,1.80
2018-04-27T07:55:35.319Z,1.80
2018-04-27T07:58:03.577Z,1.50
2018-04-27T08:00:31.462Z,1.90
2018-04-27T08:02:59.718Z,1.57
2018-04-27T08:05:27.226Z,1.70
2018-04-27T08:07:55.162Z,2.47
2018-04-27T08:10:23.454Z,1.50
2018-04-27T08:12:51.726Z,2.83
2018-04-27T08:15:20.193Z,1.83
2018-04-27T08:17:47.753Z,1.40
2018-04-27T08:20:30.414Z,1.77
2018-04-27T08:22:59.065Z,4.20
2018-04-27T08:25:32.142Z,1.73
2018-04-27T08:28:00.518Z,1.90
2018-04-27T08:30:28.802Z,1.33
2018-04-27T08:32:57.379Z,1.50
2018-04-27T08:35:25.707Z,1.57
2018-04-27T08:37:53.437Z,1.40
2018-04-27T08:40:21.389Z,1.90
2018-04-27T08:42:49.657Z,1.80
2018-04-27T08:45:18.041Z,1.33
2018-04-27T08:47:46.905Z,1.23
2018-04-27T08:50:14.803Z,1.30
2018-04-27T08:52:43.178Z,1.27
2018-04-27T08:55:11.454Z,1.33
2018-04-27T08:57:39.870Z,1.90
2018-04-27T09:00:07.345Z,1.30
2018-04-27T09:02:34.849Z,1.90
2018-04-27T09:05:03.154Z,1.30
2018-04-27T09:07:30.989Z,1.80
2018-04-27T09:09:59.370Z,1.67
2018-04-27T09:12:28.055Z,1.20
2018-04-27T09:14:56.437Z,1.20
2018-04-27T09:17:24.710Z,1.00
2018-04-27T09:19:53.082Z,1.20
2018-04-27T09:22:21.322Z,1.30
2018-04-27T09:24:48.919Z,1.37
2018-04-27T09:27:17.814Z,1.30
2018-04-27T09:29:46.411Z,1.30
2018-04-27T09:32:14.112Z,1.10
2018-04-27T09:34:42.842Z,1.10
2018-04-27T09:37:11.214Z,1.20
2018-04-27T09:39:39.703Z,1.40
2018-04-27T09:42:08.278Z,1.30
2018-04-27T09:44:36.525Z,1.00
2018-04-27T09:47:04.082Z,1.13
2018-04-27T09:49:31.882Z,1.10
2018-04-27T09:52:00.166Z,1.50
2018-04-27T09:54:28.650Z,1.50
2018-04-27T09:56:56.999Z,1.43
2018-04-27T09:59:24.567Z,1.27
2018-04-27T10:01:52.339Z,1.30
2018-04-27T10:04:20.648Z,1.13
2018-04-27T10:06:48.275Z,1.50
2018-04-27T10:09:16.584Z,1.40
2018-04-27T10:11:44.188Z,1.13
2018-04-27T10:14:11.662Z,1.37
2018-04-27T10:16:40.057Z,1.30
2018-04-27T10:19:08.409Z,1.07
2018-04-27T10:21:36.285Z,1.87
2018-04-27T10:26:38.742Z,1.50
2018-04-27T10:29:06.446Z,1.43
2018-04-27T10:31:34.685Z,1.20
2018-04-27T10:34:02.221Z,1.50
2018-04-27T10:36:29.740Z,1.13
2018-04-27T10:38:57.294Z,1.47
2018-04-27T10:41:25.777Z,1.40
2018-04-27T10:43:54.054Z,1.20
2018-04-27T10:46:22.349Z,1.43
2018-04-27T10:48:50.194Z,1.47
2018-04-27T10:51:18.816Z,1.30
2018-04-27T10:53:46.291Z,3.63
2018-04-27T10:56:13.994Z,1.53
2018-04-27T10:58:42.274Z,1.13
2018-04-27T11:01:10.653Z,1.30
2018-04-27T11:03:38.889Z,1.37
2018-04-27T11:06:07.214Z,1.07
2018-04-27T11:08:35.645Z,1.40
2018-04-27T11:11:03.158Z,1.13
2018-04-27T11:13:30.745Z,1.13
2018-04-27T11:15:58.310Z,1.53
2018-04-27T11:18:25.809Z,1.07
2018-04-27T11:20:53.377Z,1.27
2018-04-27T11:23:21.683Z,1.50
2018-04-27T11:25:49.222Z,1.43
2018-04-27T11:28:17.473Z,1.33
2018-04-27T11:30:45.026Z,1.33
2018-04-27T11:33:12.706Z,1.40
2018-04-27T11:35:40.949Z,1.00
2018-04-27T11:38:08.845Z,1.30
2018-04-27T11:40:37.543Z,1.33
2018-04-27T11:43:05.906Z,1.37
2018-04-27T11:45:34.391Z,1.20
2018-04-27T11:48:02.783Z,1.10
2018-04-27T11:50:31.205Z,1.20
2018-04-27T11:52:58.710Z,1.30
2018-04-27T11:55:26.990Z,1.57
2018-04-27T11:57:55.606Z,1.50
2018-04-27T12:00:27.190Z,1.30
2018-04-27T12:02:54.670Z,2.00
2018-04-27T12:05:22.229Z,1.20
2018-04-27T12:07:49.798Z,1.20
2018-04-27T12:10:18.082Z,1.30
2018-04-27T12:12:46.470Z,1.00
2018-04-27T12:15:13.962Z,0.93
2018-04-27T12:17:41.516Z,1.43
2018-04-27T12:20:09.769Z,1.10
2018-04-27T12:22:37.242Z,1.30
2018-04-27T12:25:04.718Z,1.20
2018-04-27T12:27:32.530Z,1.23
2018-04-27T12:30:00.801Z,1.20
2018-04-27T12:32:29.077Z,1.20
2018-04-27T12:34:57.654Z,1.27
2018-04-27T12:37:25.933Z,1.13
2018-04-27T12:39:54.213Z,1.30
2018-04-27T12:42:22.845Z,1.00
2018-04-27T12:44:50.324Z,1.50
2018-04-27T12:47:17.822Z,1.10
2018-04-27T12:49:46.290Z,1.60
2018-04-27T12:52:14.580Z,1.57
2018-04-27T12:54:42.326Z,1.10
2018-04-27T12:57:10.589Z,1.57
2018-04-27T12:59:38.166Z,1.33
2018-04-27T13:02:06.642Z,1.00
2018-04-27T13:04:34.881Z,1.20
2018-04-27T13:07:02.514Z,1.10
2018-04-27T13:09:30.023Z,2.07
2018-04-27T13:11:57.646Z,2.83
2018-04-27T13:14:25.122Z,2.10
2018-04-27T13:16:52.617Z,1.50
2018-04-27T13:19:20.930Z,1.00
2018-04-27T13:21:48.862Z,1.30
2018-04-27T13:24:17.209Z,1.23
2018-04-27T13:26:44.687Z,1.20
2018-04-27T13:29:13.001Z,1.10
2018-04-27T13:31:40.526Z,0.90
2018-04-27T13:34:09.050Z,1.30
2018-04-27T13:36:36.569Z,1.00
2018-04-27T13:39:05.544Z,2.20
2018-04-27T13:41:33.156Z,2.33
2018-04-27T13:44:00.969Z,1.57
2018-04-27T13:46:28.852Z,1.17
2018-04-27T13:48:57.093Z,1.20
2018-04-27T13:51:24.822Z,1.23
2018-04-27T13:53:52.418Z,1.17
2018-04-27T13:56:20.010Z,1.07
2018-04-27T13:58:48.286Z,1.20
2018-04-27T14:01:16.764Z,1.13
2018-04-27T14:03:45.046Z,1.17
2018-04-27T14:06:13.521Z,1.27
2018-04-27T14:08:41.077Z,1.30
2018-04-27T14:11:08.556Z,0.90
2018-04-27T14:13:36.043Z,1.10
2018-04-27T14:16:03.794Z,1.07
2018-04-27T14:18:31.622Z,0.97
2018-04-27T14:20:59.186Z,1.20
2018-04-27T14:23:27.466Z,1.10
2018-04-27T14:25:56.078Z,1.10
2018-04-27T14:28:23.558Z,1.30
2018-04-27T14:30:51.041Z,1.20
2018-04-27T14:33:18.657Z,1.27
2018-04-27T14:35:46.158Z,1.00
2018-04-27T14:38:13.823Z,1.20
2018-04-27T14:40:41.410Z,1.40
2018-04-27T14:43:09.679Z,1.13
2018-04-27T14:45:38.816Z,1.30
2018-04-27T14:48:06.330Z,1.20
2018-04-27T14:50:34.730Z,1.10
2018-04-27T14:53:02.206Z,1.33
2018-04-27T14:55:29.678Z,1.40
2018-04-27T14:57:57.358Z,1.40
2018-04-27T15:00:24.841Z,1.30
2018-04-27T15:02:53.074Z,1.33
2018-04-27T15:05:20.638Z,1.30
2018-04-27T15:07:48.112Z,1.30
2018-04-27T15:10:15.589Z,1.60
2018-04-27T15:12:44.065Z,1.10
2018-04-27T15:15:12.394Z,1.10
2018-04-27T15:17:39.904Z,1.40
2018-04-27T15:20:08.194Z,1.03
2018-04-27T15:22:36.521Z,1.30
2018-04-27T15:25:04.834Z,1.20
2018-04-27T15:27:33.114Z,1.20
2018-04-27T15:30:01.491Z,1.30
2018-04-27T15:32:30.282Z,1.60
2018-04-27T15:34:58.522Z,1.17
2018-04-27T15:37:26.001Z,1.10
2018-04-27T15:39:53.788Z,1.20
2018-04-27T15:42:22.026Z,1.20
2018-04-27T15:44:49.498Z,1.13
2018-04-27T15:47:17.873Z,1.27
2018-04-27T15:49:45.420Z,1.30
2018-04-27T15:52:13.031Z,1.30
2018-04-27T15:54:40.657Z,1.43
2018-04-27T15:57:08.897Z,1.37
2018-04-27T15:59:36.393Z,1.10
2018-04-27T16:02:04.784Z,1.27
2018-04-27T16:04:33.034Z,1.10
2018-04-27T16:07:00.827Z,1.27
2018-04-27T16:09:28.370Z,1.10
2018-04-27T16:11:55.938Z,1.10
2018-04-27T16:14:24.614Z,1.17
2018-04-27T16:16:52.857Z,1.10
2018-04-27T16:19:20.339Z,1.13
2018-04-27T16:21:47.962Z,1.17
2018-04-27T16:24:15.438Z,1.10
2018-04-27T16:26:42.963Z,1.10
2018-04-27T16:29:10.713Z,1.13
2018-04-27T16:31:38.870Z,1.00
2018-04-27T16:34:07.115Z,1.27
2018-04-27T16:36:34.595Z,1.23
2018-04-27T16:39:02.195Z,1.00
2018-04-27T16:41:29.717Z,1.10
2018-04-27T16:43:57.273Z,0.90
2018-04-27T16:46:25.041Z,1.40
2018-04-27T16:48:52.702Z,1.00
2018-04-27T16:51:20.943Z,1.17
2018-04-27T16:53:49.152Z,1.00
2018-04-27T16:56:16.627Z,1.40
2018-04-27T16:58:44.109Z,1.20
2018-04-27T17:01:11.711Z,0.90
2018-04-27T17:03:39.368Z,0.90
2018-04-27T17:06:06.951Z,1.00
2018-04-27T17:08:35.304Z,1.20
2018-04-27T17:11:02.783Z,1.03
2018-04-27T17:13:31.347Z,1.00
2018-04-27T17:15:58.794Z,1.00
2018-04-27T17:18:26.270Z,1.00
2018-04-27T17:20:54.553Z,1.20
2018-04-27T17:23:22.970Z,1.30
2018-04-27T17:25:50.485Z,1.20
2018-04-27T17:28:18.746Z,1.10
2018-04-27T17:30:46.384Z,6.33
2018-04-27T17:33:13.870Z,102.80
2018-04-27T17:35:41.345Z,20.70
2018-04-27T17:38:09.045Z,12.73
2018-04-27T17:40:36.669Z,9.23
2018-04-27T17:43:04.950Z,3.73
2018-04-27T17:45:32.435Z,6.17
2018-04-27T17:47:59.950Z,3.20
2018-04-27T17:50:28.533Z,5.07
2018-04-27T17:52:56.095Z,3.07
2018-04-27T17:55:24.882Z,3.23
2018-04-27T17:57:53.298Z,3.20
2018-04-27T18:00:20.774Z,2.40
2018-04-27T18:02:48.290Z,2.77
2018-04-27T18:05:15.786Z,3.00
2018-04-27T18:07:43.266Z,2.53
2018-04-27T18:10:11.060Z,1.70
2018-04-27T18:12:39.336Z,2.10
2018-04-27T18:15:07.606Z,2.40
2018-04-27T18:17:35.891Z,2.27
2018-04-27T18:20:04.139Z,2.70
2018-04-27T18:22:31.617Z,2.80
2018-04-27T18:25:00.298Z,2.37
2018-04-27T18:27:28.541Z,2.40
2018-04-27T18:29:56.333Z,2.33
2018-04-27T18:32:23.838Z,2.43
2018-04-27T18:34:51.363Z,2.50
2018-04-27T18:37:19.118Z,2.13
2018-04-27T18:39:47.370Z,3.93
2018-04-27T18:42:14.846Z,3.63
2018-04-27T18:44:43.329Z,8.30
2018-04-27T18:47:10.821Z,6.57
2018-04-27T18:49:38.407Z,8.97
2018-04-27T18:52:05.899Z,5.43
2018-04-27T18:54:33.390Z,10.03
2018-04-27T18:57:01.259Z,9.47
2018-04-27T18:59:29.050Z,14.00
2018-04-27T19:01:56.529Z,18.17
2018-04-27T19:04:24.425Z,18.90
2018-04-27T19:06:52.697Z,15.40
2018-04-27T19:09:20.972Z,15.90
2018-04-27T19:11:49.262Z,10.27
2018-04-27T19:14:16.879Z,9.07
2018-04-27T19:16:44.363Z,3.70
2018-04-27T19:19:12.670Z,4.23
2018-04-27T19:21:40.150Z,5.10
2018-04-27T19:24:07.640Z,5.10
2018-04-27T19:26:35.419Z,4.43
2018-04-27T19:29:03.799Z,5.17
2018-04-27T19:31:32.073Z,7.00
2018-04-27T19:34:00.329Z,11.00
2018-04-27T19:36:27.954Z,3.57
2018-04-27T19:38:55.461Z,2.17
2018-04-27T19:41:23.027Z,1.87
2018-04-27T19:43:51.705Z,2.10
2018-04-27T19:46:19.991Z,1.70
2018-04-27T19:48:48.267Z,68.90
2018-04-27T19:51:16.680Z,36.00
2018-04-27T19:53:44.405Z,91.53
2018-04-27T19:56:12.690Z,120.03
2018-04-27T19:58:41.726Z,59.87
2018-04-27T20:01:09.286Z,44.40
2018-04-27T20:03:36.766Z,37.87
2018-04-27T20:06:04.339Z,34.97
2018-04-27T20:08:32.808Z,25.57
2018-04-27T20:11:00.278Z,7.63
2018-04-27T20:13:27.795Z,30.47
2018-04-27T20:15:57.046Z,7.07
2018-04-27T20:18:28.115Z,13.33
2018-04-27T20:20:55.651Z,11.83
2018-04-27T20:23:39.174Z,21.93
2018-04-27T20:26:07.462Z,15.53
2018-04-27T20:28:38.493Z,24.77
2018-04-27T20:31:06.782Z,11.73
2018-04-27T20:33:35.059Z,8.80
2018-04-27T20:36:03.535Z,21.03
2018-04-27T20:38:31.905Z,20.53
2018-04-27T20:41:01.117Z,20.63
2018-04-27T20:43:29.057Z,22.03
2018-04-27T20:45:56.550Z,17.20
2018-04-27T20:48:25.434Z,22.47
2018-04-27T20:50:55.818Z,27.33
2018-04-27T20:53:23.405Z,47.47
2018-04-27T20:55:52.528Z,26.13
2018-04-27T20:58:20.090Z,20.43
2018-04-27T21:00:48.346Z,15.30
2018-04-27T21:03:16.194Z,16.73
2018-04-27T21:05:44.443Z,22.70
2018-04-27T21:08:11.922Z,21.73
2018-04-27T21:10:41.330Z,19.27
2018-04-27T21:13:09.582Z,12.17
2018-04-27T21:15:37.066Z,14.27
2018-04-27T21:18:05.751Z,15.33
2018-04-27T21:20:33.314Z,17.97
2018-04-27T21:23:01.586Z,21.83
2018-04-27T21:25:35.898Z,14.97
2018-04-27T21:28:06.137Z,8.03
2018-04-27T21:30:33.686Z,22.57
2018-04-27T21:33:03.090Z,12.77
2018-04-27T21:35:36.750Z,8.13
2018-04-27T21:38:05.097Z,10.53
2018-04-27T21:40:32.638Z,5.53
2018-04-27T21:43:00.229Z,6.00
2018-04-27T21:45:27.905Z,4.63
2018-04-27T21:47:55.399Z,3.53
2018-04-27T21:50:23.642Z,5.00
2018-04-27T21:52:52.014Z,4.93
2018-04-27T21:55:19.540Z,15.23
2018-04-27T21:57:52.097Z,18.57
2018-04-27T22:00:21.291Z,18.33
2018-04-27T22:03:06.941Z,9.00
2018-04-27T22:08:49.976Z,2.20
2018-04-27T22:11:20.334Z,1.70
2018-04-27T22:13:48.613Z,2.17
2018-04-27T22:16:19.625Z,1.80
2018-04-27T22:18:48.090Z,2.03
2018-04-27T22:21:15.893Z,1.93
2018-04-27T22:23:44.373Z,1.87
2018-04-27T22:26:13.575Z,2.03
2018-04-27T22:28:41.819Z,1.93
2018-04-27T22:31:09.335Z,1.70
2018-04-27T22:33:39.774Z,1.90
2018-04-27T22:36:19.190Z,1.80
2018-04-27T22:38:55.637Z,1.50
2018-04-27T22:41:23.925Z,1.80
2018-04-27T22:43:56.966Z,1.83
2018-04-27T22:46:24.446Z,1.97
2018-04-27T22:51:55.934Z,2.00
2018-04-27T22:57:31.398Z,1.80
2018-04-27T23:00:03.522Z,1.43
2018-04-27T23:02:31.021Z,1.60
2018-04-27T23:05:00.214Z,2.30
2018-04-27T23:07:41.349Z,1.97
2018-04-27T23:10:09.350Z,2.47
2018-04-27T23:12:40.774Z,2.37
2018-04-27T23:15:09.182Z,2.77
2018-04-27T23:17:37.528Z,2.63
2018-04-27T23:20:05.838Z,2.57
2018-04-27T23:22:38.198Z,2.93
2018-04-27T23:25:05.695Z,2.60
2018-04-27T23:27:34.045Z,2.40
2018-04-27T23:30:02.379Z,2.67
2018-04-27T23:32:29.905Z,2.47
2018-04-27T23:34:57.493Z,2.30
2018-04-27T23:37:24.975Z,2.33
2018-04-27T23:39:52.453Z,2.47
2018-04-27T23:42:20.753Z,2.53
2018-04-27T23:44:48.703Z,2.40
2018-04-27T23:47:17.009Z,2.73
2018-04-27T23:49:44.518Z,3.20
2018-04-27T23:52:12.093Z,3.43
2018-04-27T23:54:39.957Z,3.17
2018-04-27T23:57:08.238Z,2.97
2018-04-27T23:59:40.757Z,3.10
